sensor_id;sensor_type;location;lat;lon;timestamp;temperature;humidity
4828;DHT22;2428;48.732;9.148;2023-10-13T00:00:32;18.40;99.90
4828;DHT22;2428;48.732;9.148;2023-10-13T00:03:02;18.50;99.90
4828;DHT22;2428;48.732;9.148;2023-10-13T00:05:29;18.50;99.90
4828;DHT22;2428;48.732;9.148;2023-10-13T00:08:02;18.50;99.90
4828;DHT22;2428;48.732;9.148;2023-10-13T00:10:32;18.50;99.90
4828;DHT22;2428;48.732;9.148;2023-10-13T00:13:00;18.50;99.90
4828;DHT22;2428;48.732;9.148;2023-10-13T00:15:42;18.50;99.90
4828;DHT22;2428;48.732;9.148;2023-10-13T00:18:23;18.50;99.90
4828;DHT22;2428;48.732;9.148;2023-10-13T00:20:49;18.50;99.90
4828;DHT22;2428;48.732;9.148;2023-10-13T00:23:17;18.40;99.90
4828;DHT22;2428;48.732;9.148;2023-10-13T00:25:49;18.40;99.90
4828;DHT22;2428;48.732;9.148;2023-10-13T00:28:21;18.30;99.90
4828;DHT22;2428;48.732;9.148;2023-10-13T00:30:51;18.30;99.90
4828;DHT22;2428;48.732;9.148;2023-10-13T00:33:29;18.20;99.90
4828;DHT22;2428;48.732;9.148;2023-10-13T00:35:57;18.10;99.90
4828;DHT22;2428;48.732;9.148;2023-10-13T00:38:26;18.10;99.90
4828;DHT22;2428;48.732;9.148;2023-10-13T00:40:52;18.00;99.90
4828;DHT22;2428;48.732;9.148;2023-10-13T00:43:20;18.00;99.90
4828;DHT22;2428;48.732;9.148;2023-10-13T00:46:04;17.90;99.90
4828;DHT22;2428;48.732;9.148;2023-10-13T00:48:33;17.90;99.90
4828;DHT22;2428;48.732;9.148;2023-10-13T00:51:04;17.80;99.90
4828;DHT22;2428;48.732;9.148;2023-10-13T00:53:32;17.80;99.90
4828;DHT22;2428;48.732;9.148;2023-10-13T00:56:08;17.80;99.90
4828;DHT22;2428;48.732;9.148;2023-10-13T00:58:43;17.70;99.90
4828;DHT22;2428;48.732;9.148;2023-10-13T01:01:09;17.70;99.90
4828;DHT22;2428;48.732;9.148;2023-10-13T01:03:54;17.60;99.90
4828;DHT22;2428;48.732;9.148;2023-10-13T01:06:31;17.60;99.90
4828;DHT22;2428;48.732;9.148;2023-10-13T01:09:04;17.50;99.90
4828;DHT22;2428;48.732;9.148;2023-10-13T01:12:00;17.50;99.90
4828;DHT22;2428;48.732;9.148;2023-10-13T01:14:26;17.40;99.90
4828;DHT22;2428;48.732;9.148;2023-10-13T01:16:57;17.40;99.90
4828;DHT22;2428;48.732;9.148;2023-10-13T01:19:26;17.30;99.90
4828;DHT22;2428;48.732;9.148;2023-10-13T01:21:55;17.30;99.90
4828;DHT22;2428;48.732;9.148;2023-10-13T01:24:27;17.20;99.90
4828;DHT22;2428;48.732;9.148;2023-10-13T01:26:56;17.20;99.90
4828;DHT22;2428;48.732;9.148;2023-10-13T01:29:25;17.10;99.90
4828;DHT22;2428;48.732;9.148;2023-10-13T01:31:54;17.10;99.90
4828;DHT22;2428;48.732;9.148;2023-10-13T01:34:20;17.10;99.90
4828;DHT22;2428;48.732;9.148;2023-10-13T01:36:52;17.00;99.90
4828;DHT22;2428;48.732;9.148;2023-10-13T01:39:25;17.00;99.90
4828;DHT22;2428;48.732;9.148;2023-10-13T01:41:57;16.90;99.90
4828;DHT22;2428;48.732;9.148;2023-10-13T01:44:26;16.90;99.90
4828;DHT22;2428;48.732;9.148;2023-10-13T01:46:59;16.90;99.90
4828;DHT22;2428;48.732;9.148;2023-10-13T01:49:28;16.90;99.90
4828;DHT22;2428;48.732;9.148;2023-10-13T01:52:06;16.90;99.90
4828;DHT22;2428;48.732;9.148;2023-10-13T01:54:32;16.90;99.90
4828;DHT22;2428;48.732;9.148;2023-10-13T01:57:01;16.80;99.90
4828;DHT22;2428;48.732;9.148;2023-10-13T01:59:31;16.80;99.90
4828;DHT22;2428;48.732;9.148;2023-10-13T02:01:57;16.80;99.90
4828;DHT22;2428;48.732;9.148;2023-10-13T02:04:27;16.80;99.90
4828;DHT22;2428;48.732;9.148;2023-10-13T02:06:52;16.70;99.90
4828;DHT22;2428;48.732;9.148;2023-10-13T02:09:18;16.80;99.90
4828;DHT22;2428;48.732;9.148;2023-10-13T02:11:52;16.70;99.90
4828;DHT22;2428;48.732;9.148;2023-10-13T02:14:23;16.70;99.90
4828;DHT22;2428;48.732;9.148;2023-10-13T02:16:51;16.70;99.90
4828;DHT22;2428;48.732;9.148;2023-10-13T02:19:21;16.70;99.90
4828;DHT22;2428;48.732;9.148;2023-10-13T02:21:47;16.60;99.90
4828;DHT22;2428;48.732;9.148;2023-10-13T02:24:24;16.60;99.90
4828;DHT22;2428;48.732;9.148;2023-10-13T02:26:58;16.60;99.90
4828;DHT22;2428;48.732;9.148;2023-10-13T02:29:30;16.50;99.90
4828;DHT22;2428;48.732;9.148;2023-10-13T02:31:56;16.50;99.90
4828;DHT22;2428;48.732;9.148;2023-10-13T02:34:22;16.50;99.90
4828;DHT22;2428;48.732;9.148;2023-10-13T02:36:49;16.50;99.90
4828;DHT22;2428;48.732;9.148;2023-10-13T02:39:19;16.40;99.90
4828;DHT22;2428;48.732;9.148;2023-10-13T02:41:54;16.50;99.90
4828;DHT22;2428;48.732;9.148;2023-10-13T02:44:23;16.50;99.90
4828;DHT22;2428;48.732;9.148;2023-10-13T02:46:59;16.50;99.90
4828;DHT22;2428;48.732;9.148;2023-10-13T02:49:34;16.50;99.90
4828;DHT22;2428;48.732;9.148;2023-10-13T02:52:02;16.40;99.90
4828;DHT22;2428;48.732;9.148;2023-10-13T02:54:36;16.40;99.90
4828;DHT22;2428;48.732;9.148;2023-10-13T02:57:27;16.40;99.90
4828;DHT22;2428;48.732;9.148;2023-10-13T02:59:53;16.30;99.90
4828;DHT22;2428;48.732;9.148;2023-10-13T03:02:25;16.30;99.90
4828;DHT22;2428;48.732;9.148;2023-10-13T03:04:55;16.30;99.90
4828;DHT22;2428;48.732;9.148;2023-10-13T03:07:53;16.30;99.90
4828;DHT22;2428;48.732;9.148;2023-10-13T03:10:20;16.20;99.90
4828;DHT22;2428;48.732;9.148;2023-10-13T03:12:46;16.20;99.90
4828;DHT22;2428;48.732;9.148;2023-10-13T03:15:14;16.10;99.90
4828;DHT22;2428;48.732;9.148;2023-10-13T03:17:56;16.10;99.90
4828;DHT22;2428;48.732;9.148;2023-10-13T03:20:24;16.10;99.90
4828;DHT22;2428;48.732;9.148;2023-10-13T03:23:02;16.10;99.90
4828;DHT22;2428;48.732;9.148;2023-10-13T03:25:34;16.10;99.90
4828;DHT22;2428;48.732;9.148;2023-10-13T03:28:10;16.10;99.90
4828;DHT22;2428;48.732;9.148;2023-10-13T03:30:56;16.10;99.90
4828;DHT22;2428;48.732;9.148;2023-10-13T03:33:26;16.00;99.90
4828;DHT22;2428;48.732;9.148;2023-10-13T03:35:52;16.00;99.90
4828;DHT22;2428;48.732;9.148;2023-10-13T03:38:19;16.00;99.90
4828;DHT22;2428;48.732;9.148;2023-10-13T03:40:50;16.00;99.90
4828;DHT22;2428;48.732;9.148;2023-10-13T03:43:39;16.00;99.90
4828;DHT22;2428;48.732;9.148;2023-10-13T03:46:17;16.00;99.90
4828;DHT22;2428;48.732;9.148;2023-10-13T03:48:47;16.00;99.90
4828;DHT22;2428;48.732;9.148;2023-10-13T03:51:26;16.00;99.90
4828;DHT22;2428;48.732;9.148;2023-10-13T03:53:56;16.00;99.90
4828;DHT22;2428;48.732;9.148;2023-10-13T03:56:27;16.00;99.90
4828;DHT22;2428;48.732;9.148;2023-10-13T03:58:57;15.90;99.90
4828;DHT22;2428;48.732;9.148;2023-10-13T04:01:25;15.90;99.90
4828;DHT22;2428;48.732;9.148;2023-10-13T04:04:12;15.80;99.90
4828;DHT22;2428;48.732;9.148;2023-10-13T04:06:41;15.80;99.90
4828;DHT22;2428;48.732;9.148;2023-10-13T04:09:20;15.80;99.90
4828;DHT22;2428;48.732;9.148;2023-10-13T04:12:02;15.70;99.90
4828;DHT22;2428;48.732;9.148;2023-10-13T04:14:32;15.60;99.90
4828;DHT22;2428;48.732;9.148;2023-10-13T04:17:17;15.60;99.90
4828;DHT22;2428;48.732;9.148;2023-10-13T04:19:50;15.60;99.90
4828;DHT22;2428;48.732;9.148;2023-10-13T04:22:38;15.60;99.90
4828;DHT22;2428;48.732;9.148;2023-10-13T04:25:23;15.60;99.90
4828;DHT22;2428;48.732;9.148;2023-10-13T04:28:11;15.50;99.90
4828;DHT22;2428;48.732;9.148;2023-10-13T04:30:47;15.50;99.90
4828;DHT22;2428;48.732;9.148;2023-10-13T04:33:25;15.50;99.90
4828;DHT22;2428;48.732;9.148;2023-10-13T04:36:08;15.50;99.90
4828;DHT22;2428;48.732;9.148;2023-10-13T04:38:53;15.50;99.90
4828;DHT22;2428;48.732;9.148;2023-10-13T04:43:57;15.50;99.90
4828;DHT22;2428;48.732;9.148;2023-10-13T04:46:30;15.50;99.90
4828;DHT22;2428;48.732;9.148;2023-10-13T04:49:11;15.50;99.90
4828;DHT22;2428;48.732;9.148;2023-10-13T04:51:56;15.50;99.90
4828;DHT22;2428;48.732;9.148;2023-10-13T04:54:27;15.50;99.90
4828;DHT22;2428;48.732;9.148;2023-10-13T04:57:02;15.50;99.90
4828;DHT22;2428;48.732;9.148;2023-10-13T04:59:40;15.50;99.90
4828;DHT22;2428;48.732;9.148;2023-10-13T05:02:24;15.60;99.90
4828;DHT22;2428;48.732;9.148;2023-10-13T05:05:02;15.60;99.90
4828;DHT22;2428;48.732;9.148;2023-10-13T05:07:31;15.60;99.90
4828;DHT22;2428;48.732;9.148;2023-10-13T05:10:16;15.60;99.90
4828;DHT22;2428;48.732;9.148;2023-10-13T05:13:00;15.60;99.90
4828;DHT22;2428;48.732;9.148;2023-10-13T05:15:48;15.60;99.90
4828;DHT22;2428;48.732;9.148;2023-10-13T05:18:33;15.60;99.90
4828;DHT22;2428;48.732;9.148;2023-10-13T05:21:18;15.70;99.90
4828;DHT22;2428;48.732;9.148;2023-10-13T05:24:02;15.70;99.90
4828;DHT22;2428;48.732;9.148;2023-10-13T05:26:47;15.60;99.90
4828;DHT22;2428;48.732;9.148;2023-10-13T05:29:31;15.70;99.90
4828;DHT22;2428;48.732;9.148;2023-10-13T05:32:15;15.60;99.90
4828;DHT22;2428;48.732;9.148;2023-10-13T05:35:02;15.70;99.90
4828;DHT22;2428;48.732;9.148;2023-10-13T05:37:46;15.70;99.90
4828;DHT22;2428;48.732;9.148;2023-10-13T05:40:51;15.60;99.90
4828;DHT22;2428;48.732;9.148;2023-10-13T05:43:37;15.60;99.90
4828;DHT22;2428;48.732;9.148;2023-10-13T05:46:21;15.70;99.90
4828;DHT22;2428;48.732;9.148;2023-10-13T05:48:54;15.70;99.90
4828;DHT22;2428;48.732;9.148;2023-10-13T05:51:26;15.70;99.90
4828;DHT22;2428;48.732;9.148;2023-10-13T05:54:01;15.70;99.90
4828;DHT22;2428;48.732;9.148;2023-10-13T05:59:30;15.70;99.90
4828;DHT22;2428;48.732;9.148;2023-10-13T06:02:16;15.80;99.90
4828;DHT22;2428;48.732;9.148;2023-10-13T06:05:08;15.80;99.90
4828;DHT22;2428;48.732;9.148;2023-10-13T06:07:55;15.80;99.90
4828;DHT22;2428;48.732;9.148;2023-10-13T06:10:40;15.90;99.90
4828;DHT22;2428;48.732;9.148;2023-10-13T06:13:25;15.80;99.90
4828;DHT22;2428;48.732;9.148;2023-10-13T06:16:13;15.90;99.90
4828;DHT22;2428;48.732;9.148;2023-10-13T06:18:57;15.90;99.90
4828;DHT22;2428;48.732;9.148;2023-10-13T06:21:42;16.00;99.90
4828;DHT22;2428;48.732;9.148;2023-10-13T06:24:27;16.00;99.90
4828;DHT22;2428;48.732;9.148;2023-10-13T06:27:11;16.10;99.90
4828;DHT22;2428;48.732;9.148;2023-10-13T06:29:55;16.10;99.90
4828;DHT22;2428;48.732;9.148;2023-10-13T06:32:21;16.20;99.90
4828;DHT22;2428;48.732;9.148;2023-10-13T06:34:57;16.20;99.90
4828;DHT22;2428;48.732;9.148;2023-10-13T06:37:26;16.30;99.90
4828;DHT22;2428;48.732;9.148;2023-10-13T06:39:59;16.30;99.90
4828;DHT22;2428;48.732;9.148;2023-10-13T06:42:31;16.30;99.90
4828;DHT22;2428;48.732;9.148;2023-10-13T06:45:00;16.40;99.90
4828;DHT22;2428;48.732;9.148;2023-10-13T06:47:34;16.50;99.90
4828;DHT22;2428;48.732;9.148;2023-10-13T06:50:15;16.50;99.90
4828;DHT22;2428;48.732;9.148;2023-10-13T06:52:44;16.60;99.90
4828;DHT22;2428;48.732;9.148;2023-10-13T06:55:21;16.60;99.90
4828;DHT22;2428;48.732;9.148;2023-10-13T06:57:54;16.60;99.90
4828;DHT22;2428;48.732;9.148;2023-10-13T07:00:28;16.70;99.90
4828;DHT22;2428;48.732;9.148;2023-10-13T07:03:04;16.70;99.90
4828;DHT22;2428;48.732;9.148;2023-10-13T07:08:05;16.80;99.90
4828;DHT22;2428;48.732;9.148;2023-10-13T07:10:31;16.90;99.90
4828;DHT22;2428;48.732;9.148;2023-10-13T07:13:01;17.00;99.90
4828;DHT22;2428;48.732;9.148;2023-10-13T07:15:30;17.10;99.90
4828;DHT22;2428;48.732;9.148;2023-10-13T07:17:58;17.10;99.90
4828;DHT22;2428;48.732;9.148;2023-10-13T07:20:27;17.20;99.90
4828;DHT22;2428;48.732;9.148;2023-10-13T07:22:53;17.30;99.90
4828;DHT22;2428;48.732;9.148;2023-10-13T07:25:37;17.30;99.90
4828;DHT22;2428;48.732;9.148;2023-10-13T07:28:11;17.40;99.90
4828;DHT22;2428;48.732;9.148;2023-10-13T07:30:39;17.50;99.90
4828;DHT22;2428;48.732;9.148;2023-10-13T07:33:39;17.50;99.90
4828;DHT22;2428;48.732;9.148;2023-10-13T07:36:08;17.60;99.90
4828;DHT22;2428;48.732;9.148;2023-10-13T07:38:50;17.70;99.90
4828;DHT22;2428;48.732;9.148;2023-10-13T07:41:25;17.70;99.90
4828;DHT22;2428;48.732;9.148;2023-10-13T07:43:56;17.80;99.90
4828;DHT22;2428;48.732;9.148;2023-10-13T07:46:31;17.90;99.90
4828;DHT22;2428;48.732;9.148;2023-10-13T07:49:00;17.90;99.90
4828;DHT22;2428;48.732;9.148;2023-10-13T07:51:40;18.00;99.90
4828;DHT22;2428;48.732;9.148;2023-10-13T07:54:14;18.20;99.90
4828;DHT22;2428;48.732;9.148;2023-10-13T07:56:54;18.20;99.90
4828;DHT22;2428;48.732;9.148;2023-10-13T07:59:22;18.30;99.90
4828;DHT22;2428;48.732;9.148;2023-10-13T08:01:49;18.30;99.90
4828;DHT22;2428;48.732;9.148;2023-10-13T08:04:35;18.40;99.90
4828;DHT22;2428;48.732;9.148;2023-10-13T08:07:02;18.40;99.90
4828;DHT22;2428;48.732;9.148;2023-10-13T08:09:38;18.40;99.90
4828;DHT22;2428;48.732;9.148;2023-10-13T08:12:06;18.50;99.90
4828;DHT22;2428;48.732;9.148;2023-10-13T08:14:39;18.60;99.90
4828;DHT22;2428;48.732;9.148;2023-10-13T08:17:07;18.70;99.90
4828;DHT22;2428;48.732;9.148;2023-10-13T08:19:36;18.90;99.90
4828;DHT22;2428;48.732;9.148;2023-10-13T08:22:27;19.00;99.90
4828;DHT22;2428;48.732;9.148;2023-10-13T08:25:10;19.00;99.90
4828;DHT22;2428;48.732;9.148;2023-10-13T08:28:07;19.10;99.90
4828;DHT22;2428;48.732;9.148;2023-10-13T08:30:51;19.20;99.90
4828;DHT22;2428;48.732;9.148;2023-10-13T08:33:18;19.30;99.90
4828;DHT22;2428;48.732;9.148;2023-10-13T08:35:44;19.40;99.90
4828;DHT22;2428;48.732;9.148;2023-10-13T08:38:31;19.50;99.90
4828;DHT22;2428;48.732;9.148;2023-10-13T08:41:09;19.60;99.90
4828;DHT22;2428;48.732;9.148;2023-10-13T08:43:46;19.70;99.90
4828;DHT22;2428;48.732;9.148;2023-10-13T08:46:17;19.80;99.90
4828;DHT22;2428;48.732;9.148;2023-10-13T08:48:58;19.90;99.90
4828;DHT22;2428;48.732;9.148;2023-10-13T08:51:35;20.00;99.90
4828;DHT22;2428;48.732;9.148;2023-10-13T08:54:16;20.10;99.90
4828;DHT22;2428;48.732;9.148;2023-10-13T08:56:48;20.10;99.90
4828;DHT22;2428;48.732;9.148;2023-10-13T08:59:22;20.20;99.90
4828;DHT22;2428;48.732;9.148;2023-10-13T09:02:17;20.30;99.90
4828;DHT22;2428;48.732;9.148;2023-10-13T09:04:43;20.50;99.90
4828;DHT22;2428;48.732;9.148;2023-10-13T09:07:44;20.60;99.90
4828;DHT22;2428;48.732;9.148;2023-10-13T09:10:22;20.70;99.90
4828;DHT22;2428;48.732;9.148;2023-10-13T09:13:01;20.80;99.90
4828;DHT22;2428;48.732;9.148;2023-10-13T09:15:36;20.90;99.90
4828;DHT22;2428;48.732;9.148;2023-10-13T09:18:25;21.00;99.90
4828;DHT22;2428;48.732;9.148;2023-10-13T09:21:11;21.10;99.90
4828;DHT22;2428;48.732;9.148;2023-10-13T09:24:08;21.20;99.90
4828;DHT22;2428;48.732;9.148;2023-10-13T09:26:53;21.30;99.90
4828;DHT22;2428;48.732;9.148;2023-10-13T09:29:25;21.40;99.90
4828;DHT22;2428;48.732;9.148;2023-10-13T09:32:01;21.50;99.90
4828;DHT22;2428;48.732;9.148;2023-10-13T09:34:28;21.50;99.90
4828;DHT22;2428;48.732;9.148;2023-10-13T09:36:59;21.70;99.90
4828;DHT22;2428;48.732;9.148;2023-10-13T09:39:28;21.80;99.90
4828;DHT22;2428;48.732;9.148;2023-10-13T09:42:14;22.10;99.90
4828;DHT22;2428;48.732;9.148;2023-10-13T09:44:43;22.50;99.90
4828;DHT22;2428;48.732;9.148;2023-10-13T09:47:16;22.50;99.90
4828;DHT22;2428;48.732;9.148;2023-10-13T09:49:46;22.40;99.90
4828;DHT22;2428;48.732;9.148;2023-10-13T09:52:18;22.40;99.90
4828;DHT22;2428;48.732;9.148;2023-10-13T09:55:03;22.40;99.90
4828;DHT22;2428;48.732;9.148;2023-10-13T09:57:37;22.40;99.90
4828;DHT22;2428;48.732;9.148;2023-10-13T10:00:12;22.40;99.90
4828;DHT22;2428;48.732;9.148;2023-10-13T10:02:55;22.40;99.90
4828;DHT22;2428;48.732;9.148;2023-10-13T10:05:29;22.50;99.90
4828;DHT22;2428;48.732;9.148;2023-10-13T10:08:00;22.60;99.90
4828;DHT22;2428;48.732;9.148;2023-10-13T10:10:51;22.70;99.90
4828;DHT22;2428;48.732;9.148;2023-10-13T10:13:35;22.80;99.90
4828;DHT22;2428;48.732;9.148;2023-10-13T10:16:10;22.80;99.90
4828;DHT22;2428;48.732;9.148;2023-10-13T10:18:41;22.90;99.90
4828;DHT22;2428;48.732;9.148;2023-10-13T10:21:08;23.10;99.90
4828;DHT22;2428;48.732;9.148;2023-10-13T10:23:35;23.20;99.90
4828;DHT22;2428;48.732;9.148;2023-10-13T10:26:13;23.30;99.90
4828;DHT22;2428;48.732;9.148;2023-10-13T10:28:46;23.40;99.00
4828;DHT22;2428;48.732;9.148;2023-10-13T10:31:12;23.60;99.50
4828;DHT22;2428;48.732;9.148;2023-10-13T10:33:41;23.60;99.30
4828;DHT22;2428;48.732;9.148;2023-10-13T10:36:07;23.80;99.30
4828;DHT22;2428;48.732;9.148;2023-10-13T10:38:51;23.80;98.90
4828;DHT22;2428;48.732;9.148;2023-10-13T10:41:31;23.80;99.90
4828;DHT22;2428;48.732;9.148;2023-10-13T10:44:26;23.90;99.20
4828;DHT22;2428;48.732;9.148;2023-10-13T10:47:10;24.00;99.00
4828;DHT22;2428;48.732;9.148;2023-10-13T10:49:38;24.00;98.80
4828;DHT22;2428;48.732;9.148;2023-10-13T10:52:09;24.00;99.00
4828;DHT22;2428;48.732;9.148;2023-10-13T10:54:40;24.10;98.40
4828;DHT22;2428;48.732;9.148;2023-10-13T10:57:09;24.20;99.00
4828;DHT22;2428;48.732;9.148;2023-10-13T10:59:44;24.30;98.10
4828;DHT22;2428;48.732;9.148;2023-10-13T11:02:11;24.30;97.50
4828;DHT22;2428;48.732;9.148;2023-10-13T11:04:41;24.30;97.10
4828;DHT22;2428;48.732;9.148;2023-10-13T11:07:23;24.20;96.70
4828;DHT22;2428;48.732;9.148;2023-10-13T11:09:49;24.20;96.20
4828;DHT22;2428;48.732;9.148;2023-10-13T11:12:18;24.30;96.30
4828;DHT22;2428;48.732;9.148;2023-10-13T11:15:05;24.30;96.70
4828;DHT22;2428;48.732;9.148;2023-10-13T11:17:54;24.30;95.80
4828;DHT22;2428;48.732;9.148;2023-10-13T11:20:24;24.40;95.50
4828;DHT22;2428;48.732;9.148;2023-10-13T11:23:14;24.40;95.90
4828;DHT22;2428;48.732;9.148;2023-10-13T11:25:41;24.40;95.80
4828;DHT22;2428;48.732;9.148;2023-10-13T11:28:16;24.40;95.20
4828;DHT22;2428;48.732;9.148;2023-10-13T11:30:55;24.30;94.80
4828;DHT22;2428;48.732;9.148;2023-10-13T11:33:27;24.30;95.20
4828;DHT22;2428;48.732;9.148;2023-10-13T11:35:55;24.40;94.90
4828;DHT22;2428;48.732;9.148;2023-10-13T11:38:43;24.40;94.70
4828;DHT22;2428;48.732;9.148;2023-10-13T11:41:15;24.40;94.70
4828;DHT22;2428;48.732;9.148;2023-10-13T11:43:47;24.50;94.50
4828;DHT22;2428;48.732;9.148;2023-10-13T11:46:32;24.60;94.40
4828;DHT22;2428;48.732;9.148;2023-10-13T11:49:04;24.60;95.10
4828;DHT22;2428;48.732;9.148;2023-10-13T11:51:53;24.70;94.70
4828;DHT22;2428;48.732;9.148;2023-10-13T11:54:41;24.80;94.70
4828;DHT22;2428;48.732;9.148;2023-10-13T11:57:10;24.90;95.20
4828;DHT22;2428;48.732;9.148;2023-10-13T11:59:35;24.90;95.00
4828;DHT22;2428;48.732;9.148;2023-10-13T12:02:10;25.00;93.20
4828;DHT22;2428;48.732;9.148;2023-10-13T12:04:36;25.00;93.10
4828;DHT22;2428;48.732;9.148;2023-10-13T12:07:18;25.00;93.50
4828;DHT22;2428;48.732;9.148;2023-10-13T12:10:05;25.10;93.00
4828;DHT22;2428;48.732;9.148;2023-10-13T12:12:49;25.20;92.20
4828;DHT22;2428;48.732;9.148;2023-10-13T12:15:18;25.20;93.00
4828;DHT22;2428;48.732;9.148;2023-10-13T12:18:02;25.20;92.70
4828;DHT22;2428;48.732;9.148;2023-10-13T12:20:29;25.30;91.30
4828;DHT22;2428;48.732;9.148;2023-10-13T12:23:07;25.30;91.30
4828;DHT22;2428;48.732;9.148;2023-10-13T12:25:41;25.30;91.00
4828;DHT22;2428;48.732;9.148;2023-10-13T12:28:22;25.40;90.90
4828;DHT22;2428;48.732;9.148;2023-10-13T12:30:49;25.40;90.70
4828;DHT22;2428;48.732;9.148;2023-10-13T12:33:15;25.40;90.50
4828;DHT22;2428;48.732;9.148;2023-10-13T12:36:10;25.40;90.60
4828;DHT22;2428;48.732;9.148;2023-10-13T12:38:43;25.40;90.90
4828;DHT22;2428;48.732;9.148;2023-10-13T12:41:11;25.50;90.30
4828;DHT22;2428;48.732;9.148;2023-10-13T12:43:55;25.50;90.60
4828;DHT22;2428;48.732;9.148;2023-10-13T12:46:40;25.60;90.00
4828;DHT22;2428;48.732;9.148;2023-10-13T12:49:24;25.70;90.00
4828;DHT22;2428;48.732;9.148;2023-10-13T12:52:11;25.70;90.30
4828;DHT22;2428;48.732;9.148;2023-10-13T12:54:46;25.70;91.10
4828;DHT22;2428;48.732;9.148;2023-10-13T12:57:21;25.70;90.60
4828;DHT22;2428;48.732;9.148;2023-10-13T12:59:51;25.80;90.30
4828;DHT22;2428;48.732;9.148;2023-10-13T13:02:23;25.80;90.50
4828;DHT22;2428;48.732;9.148;2023-10-13T13:04:55;25.90;90.40
4828;DHT22;2428;48.732;9.148;2023-10-13T13:07:30;25.90;90.20
4828;DHT22;2428;48.732;9.148;2023-10-13T13:09:56;26.00;90.40
4828;DHT22;2428;48.732;9.148;2023-10-13T13:12:25;26.10;88.50
4828;DHT22;2428;48.732;9.148;2023-10-13T13:14:56;26.10;88.20
4828;DHT22;2428;48.732;9.148;2023-10-13T13:17:22;26.20;84.00
4828;DHT22;2428;48.732;9.148;2023-10-13T13:19:47;26.20;84.60
4828;DHT22;2428;48.732;9.148;2023-10-13T13:22:13;26.30;82.60
4828;DHT22;2428;48.732;9.148;2023-10-13T13:24:47;26.30;83.50
4828;DHT22;2428;48.732;9.148;2023-10-13T13:27:14;26.30;83.50
4828;DHT22;2428;48.732;9.148;2023-10-13T13:29:43;26.30;85.10
4828;DHT22;2428;48.732;9.148;2023-10-13T13:32:14;26.40;81.80
4828;DHT22;2428;48.732;9.148;2023-10-13T13:34:49;26.30;81.40
4828;DHT22;2428;48.732;9.148;2023-10-13T13:37:31;26.20;80.80
4828;DHT22;2428;48.732;9.148;2023-10-13T13:39:57;26.10;80.80
4828;DHT22;2428;48.732;9.148;2023-10-13T13:42:41;26.10;80.80
4828;DHT22;2428;48.732;9.148;2023-10-13T13:45:18;26.20;80.70
4828;DHT22;2428;48.732;9.148;2023-10-13T13:47:50;26.20;82.00
4828;DHT22;2428;48.732;9.148;2023-10-13T13:50:27;26.20;82.80
4828;DHT22;2428;48.732;9.148;2023-10-13T13:52:58;26.30;80.60
4828;DHT22;2428;48.732;9.148;2023-10-13T13:55:25;26.40;78.50
4828;DHT22;2428;48.732;9.148;2023-10-13T13:57:57;26.40;78.30
4828;DHT22;2428;48.732;9.148;2023-10-13T14:00:23;26.40;77.80
4828;DHT22;2428;48.732;9.148;2023-10-13T14:03:06;26.40;78.10
4828;DHT22;2428;48.732;9.148;2023-10-13T14:05:41;26.40;76.00
4828;DHT22;2428;48.732;9.148;2023-10-13T14:08:07;26.40;75.70
4828;DHT22;2428;48.732;9.148;2023-10-13T14:10:37;26.50;75.90
4828;DHT22;2428;48.732;9.148;2023-10-13T14:13:23;26.40;76.30
4828;DHT22;2428;48.732;9.148;2023-10-13T14:16:08;26.40;75.00
4828;DHT22;2428;48.732;9.148;2023-10-13T14:18:48;26.40;75.20
4828;DHT22;2428;48.732;9.148;2023-10-13T14:21:14;26.50;73.50
4828;DHT22;2428;48.732;9.148;2023-10-13T14:23:52;26.50;73.70
4828;DHT22;2428;48.732;9.148;2023-10-13T14:26:21;26.50;73.60
4828;DHT22;2428;48.732;9.148;2023-10-13T14:28:51;26.50;74.40
4828;DHT22;2428;48.732;9.148;2023-10-13T14:31:30;26.50;73.20
4828;DHT22;2428;48.732;9.148;2023-10-13T14:33:56;26.50;72.80
4828;DHT22;2428;48.732;9.148;2023-10-13T14:36:27;26.50;72.00
4828;DHT22;2428;48.732;9.148;2023-10-13T14:38:55;26.50;70.40
4828;DHT22;2428;48.732;9.148;2023-10-13T14:41:20;26.50;69.40
4828;DHT22;2428;48.732;9.148;2023-10-13T14:43:46;26.50;69.00
4828;DHT22;2428;48.732;9.148;2023-10-13T14:46:19;26.50;68.00
4828;DHT22;2428;48.732;9.148;2023-10-13T14:48:51;26.50;68.80
4828;DHT22;2428;48.732;9.148;2023-10-13T14:51:17;26.50;68.90
4828;DHT22;2428;48.732;9.148;2023-10-13T14:53:46;26.50;69.10
4828;DHT22;2428;48.732;9.148;2023-10-13T14:56:16;26.50;70.10
4828;DHT22;2428;48.732;9.148;2023-10-13T14:58:44;26.50;69.30
4828;DHT22;2428;48.732;9.148;2023-10-13T15:01:17;26.50;67.80
4828;DHT22;2428;48.732;9.148;2023-10-13T15:03:52;26.40;68.00
4828;DHT22;2428;48.732;9.148;2023-10-13T15:06:28;26.40;69.10
4828;DHT22;2428;48.732;9.148;2023-10-13T15:08:58;26.30;67.80
4828;DHT22;2428;48.732;9.148;2023-10-13T15:11:25;26.20;67.00
4828;DHT22;2428;48.732;9.148;2023-10-13T15:14:11;26.10;66.00
4828;DHT22;2428;48.732;9.148;2023-10-13T15:16:38;26.10;65.90
4828;DHT22;2428;48.732;9.148;2023-10-13T15:19:04;26.10;65.10
4828;DHT22;2428;48.732;9.148;2023-10-13T15:21:32;26.00;64.90
4828;DHT22;2428;48.732;9.148;2023-10-13T15:24:01;26.00;64.80
4828;DHT22;2428;48.732;9.148;2023-10-13T15:26:39;26.00;64.70
4828;DHT22;2428;48.732;9.148;2023-10-13T15:29:07;25.90;65.70
4828;DHT22;2428;48.732;9.148;2023-10-13T15:31:38;25.80;66.50
4828;DHT22;2428;48.732;9.148;2023-10-13T15:34:12;25.70;65.00
4828;DHT22;2428;48.732;9.148;2023-10-13T15:36:41;25.60;65.40
4828;DHT22;2428;48.732;9.148;2023-10-13T15:39:10;25.50;65.80
4828;DHT22;2428;48.732;9.148;2023-10-13T15:41:37;25.50;65.70
4828;DHT22;2428;48.732;9.148;2023-10-13T15:44:13;25.40;66.10
4828;DHT22;2428;48.732;9.148;2023-10-13T15:46:42;25.40;66.60
4828;DHT22;2428;48.732;9.148;2023-10-13T15:49:07;25.40;64.70
4828;DHT22;2428;48.732;9.148;2023-10-13T15:51:36;25.30;64.80
4828;DHT22;2428;48.732;9.148;2023-10-13T15:54:02;25.30;64.60
4828;DHT22;2428;48.732;9.148;2023-10-13T15:56:28;25.20;64.40
4828;DHT22;2428;48.732;9.148;2023-10-13T15:59:00;25.20;63.70
4828;DHT22;2428;48.732;9.148;2023-10-13T16:01:27;25.20;63.40
4828;DHT22;2428;48.732;9.148;2023-10-13T16:03:53;25.20;63.70
4828;DHT22;2428;48.732;9.148;2023-10-13T16:06:19;25.20;63.90
4828;DHT22;2428;48.732;9.148;2023-10-13T16:08:54;25.10;63.70
4828;DHT22;2428;48.732;9.148;2023-10-13T16:11:20;25.10;63.10
4828;DHT22;2428;48.732;9.148;2023-10-13T16:13:48;25.10;63.70
4828;DHT22;2428;48.732;9.148;2023-10-13T16:16:18;25.00;64.10
4828;DHT22;2428;48.732;9.148;2023-10-13T16:18:45;24.90;64.40
4828;DHT22;2428;48.732;9.148;2023-10-13T16:21:11;24.90;64.50
4828;DHT22;2428;48.732;9.148;2023-10-13T16:23:45;24.80;64.40
4828;DHT22;2428;48.732;9.148;2023-10-13T16:26:18;24.80;65.20
4828;DHT22;2428;48.732;9.148;2023-10-13T16:28:48;24.70;65.30
4828;DHT22;2428;48.732;9.148;2023-10-13T16:31:13;24.60;66.10
4828;DHT22;2428;48.732;9.148;2023-10-13T16:33:39;24.50;66.00
4828;DHT22;2428;48.732;9.148;2023-10-13T16:36:07;24.50;67.00
4828;DHT22;2428;48.732;9.148;2023-10-13T16:38:37;24.40;66.70
4828;DHT22;2428;48.732;9.148;2023-10-13T16:41:03;24.30;66.90
4828;DHT22;2428;48.732;9.148;2023-10-13T16:43:34;24.20;67.80
4828;DHT22;2428;48.732;9.148;2023-10-13T16:46:01;24.10;67.70
4828;DHT22;2428;48.732;9.148;2023-10-13T16:48:32;24.00;68.30
4828;DHT22;2428;48.732;9.148;2023-10-13T16:51:00;23.90;68.40
4828;DHT22;2428;48.732;9.148;2023-10-13T16:53:26;23.90;68.90
4828;DHT22;2428;48.732;9.148;2023-10-13T16:55:53;23.80;69.60